createdAt,value
2023-04-27T00:01:55.205Z,75.23
2023-04-27T00:04:22.346Z,75.22
2023-04-27T00:06:49.370Z,74.66
2023-04-27T00:09:16.225Z,75.27
2023-04-27T00:11:43.006Z,74.67
2023-04-27T00:14:09.517Z,75.96
2023-04-27T00:16:35.950Z,75.66
2023-04-27T00:19:02.540Z,76.25
2023-04-27T00:21:29.003Z,75.40
2023-04-27T00:23:55.591Z,76.60
2023-04-27T00:26:22.467Z,75.80
2023-04-27T00:28:50.548Z,75.79
2023-04-27T00:31:17.063Z,75.40
2023-04-27T00:33:43.576Z,75.17
2023-04-27T00:36:10.012Z,75.65
2023-04-27T00:38:36.945Z,76.04
2023-04-27T00:41:06.912Z,75.73
2023-04-27T00:43:41.197Z,76.09
2023-04-27T00:46:08.389Z,76.39
2023-04-27T00:48:35.552Z,76.57
2023-04-27T00:51:02.004Z,76.32
2023-04-27T00:53:28.760Z,76.70
2023-04-27T00:55:57.736Z,76.32
2023-04-27T00:58:24.766Z,76.14
2023-04-27T01:00:52.125Z,76.16
2023-04-27T01:03:18.997Z,76.99
2023-04-27T01:05:45.566Z,76.30
2023-04-27T01:08:12.244Z,75.97
2023-04-27T01:10:38.847Z,76.39
2023-04-27T01:13:05.903Z,75.50
2023-04-27T01:15:32.284Z,76.13
2023-04-27T01:18:00.429Z,76.26
2023-04-27T01:20:32.368Z,75.77
2023-04-27T01:22:59.851Z,76.83
2023-04-27T01:25:26.913Z,77.10
2023-04-27T01:27:54.617Z,76.73
2023-04-27T01:30:22.532Z,77.05
2023-04-27T01:32:49.972Z,76.16
2023-04-27T01:35:18.887Z,76.49
2023-04-27T01:37:45.481Z,76.84
2023-04-27T01:40:13.017Z,76.65
2023-04-27T01:42:39.813Z,77.35
2023-04-27T01:45:09.041Z,77.72
2023-04-27T01:47:35.942Z,77.31
2023-04-27T01:50:02.406Z,77.27
2023-04-27T01:52:28.872Z,77.29
2023-04-27T01:54:55.438Z,78.08
2023-04-27T01:57:22.644Z,78.44
2023-04-27T01:59:49.135Z,78.44
2023-04-27T02:02:15.784Z,78.35
2023-04-27T02:04:43.226Z,77.78
2023-04-27T02:07:10.094Z,78.35
2023-04-27T02:09:36.713Z,79.93
2023-04-27T02:12:03.723Z,79.60
2023-04-27T02:14:30.188Z,80.55
2023-04-27T02:16:56.880Z,79.82
2023-04-27T02:19:23.445Z,80.04
2023-04-27T02:21:50.052Z,80.13
2023-04-27T02:24:16.493Z,80.62
2023-04-27T02:26:45.051Z,80.61
2023-04-27T02:29:11.786Z,79.52
2023-04-27T02:31:38.841Z,79.08
2023-04-27T02:34:05.324Z,78.94
2023-04-27T02:36:31.882Z,79.52
2023-04-27T02:38:58.590Z,80.31
2023-04-27T02:41:27.888Z,79.70
2023-04-27T02:43:54.639Z,79.87
2023-04-27T02:46:21.210Z,79.43
2023-04-27T02:48:47.805Z,79.85
2023-04-27T02:51:14.408Z,79.82
2023-04-27T02:53:41.095Z,79.93
2023-04-27T02:56:07.501Z,79.34
2023-04-27T02:58:34.102Z,79.76
2023-04-27T03:01:00.987Z,79.51
2023-04-27T03:03:27.845Z,79.37
2023-04-27T03:05:54.419Z,79.30
2023-04-27T03:08:21.000Z,79.66
2023-04-27T03:10:47.418Z,80.07
2023-04-27T03:13:17.032Z,79.37
2023-04-27T03:15:43.602Z,79.15
2023-04-27T03:18:10.185Z,80.41
2023-04-27T03:20:36.651Z,80.21
2023-04-27T03:23:03.446Z,79.98
2023-04-27T03:25:29.870Z,79.95
2023-04-27T03:27:56.799Z,79.61
2023-04-27T03:30:23.355Z,80.04
2023-04-27T03:32:49.955Z,79.54
2023-04-27T03:35:16.533Z,79.38
2023-04-27T03:37:46.153Z,79.42
2023-04-27T03:40:14.295Z,79.40
2023-04-27T03:42:41.122Z,79.26
2023-04-27T03:45:08.383Z,79.10
2023-04-27T03:47:34.941Z,79.53
2023-04-27T03:50:01.640Z,80.25
2023-04-27T03:52:28.329Z,79.85
2023-04-27T03:54:54.759Z,80.37
2023-04-27T03:57:21.550Z,80.24
2023-04-27T03:59:48.006Z,80.41
2023-04-27T04:02:15.255Z,80.45
2023-04-27T04:04:42.201Z,79.91
2023-04-27T04:07:08.884Z,80.28
2023-04-27T04:09:35.688Z,79.91
2023-04-27T04:12:02.458Z,80.21
2023-04-27T04:14:29.170Z,80.66
2023-04-27T04:16:56.880Z,80.30
2023-04-27T04:19:23.442Z,80.77
2023-04-27T04:21:50.019Z,80.41
2023-04-27T04:24:18.727Z,80.36
2023-04-27T04:26:45.170Z,79.93
2023-04-27T04:29:11.652Z,80.58
2023-04-27T04:31:38.618Z,80.60
2023-04-27T04:34:05.099Z,80.39
2023-04-27T04:36:32.049Z,80.16
2023-04-27T04:38:58.800Z,80.45
2023-04-27T04:41:26.273Z,79.75
2023-04-27T04:43:52.780Z,80.58
2023-04-27T04:46:20.118Z,80.10
2023-04-27T04:48:46.921Z,80.83
2023-04-27T04:51:13.618Z,80.02
2023-04-27T04:53:40.057Z,80.15
2023-04-27T04:56:11.439Z,80.14
2023-04-27T04:58:38.208Z,79.20
2023-04-27T05:01:05.423Z,80.34
2023-04-27T05:03:32.681Z,80.16
2023-04-27T05:05:59.370Z,79.61
2023-04-27T05:08:25.840Z,80.01
2023-04-27T05:10:53.290Z,80.05
2023-04-27T05:13:20.520Z,79.76
2023-04-27T05:15:47.155Z,78.97
2023-04-27T05:18:13.712Z,79.20
2023-04-27T05:20:40.820Z,78.84
2023-04-27T05:23:07.388Z,79.29
2023-04-27T05:25:34.591Z,78.76
2023-04-27T05:28:00.999Z,77.83
2023-04-27T05:30:27.562Z,78.01
2023-04-27T05:32:54.207Z,78.19
2023-04-27T05:35:20.858Z,76.93
2023-04-27T05:37:47.246Z,77.75
2023-04-27T05:40:15.357Z,78.57
2023-04-27T05:42:41.740Z,78.22
2023-04-27T05:45:08.613Z,76.61
2023-04-27T05:47:35.121Z,76.74
2023-04-27T05:50:01.628Z,76.56
2023-04-27T05:52:30.906Z,77.64
2023-04-27T05:54:58.567Z,76.57
2023-04-27T05:57:25.947Z,76.97
2023-04-27T05:59:52.883Z,75.91
2023-04-27T06:02:19.902Z,75.57
2023-04-27T06:04:46.561Z,76.18
2023-04-27T06:07:16.166Z,76.26
2023-04-27T06:09:42.837Z,77.44
2023-04-27T06:12:09.537Z,77.56
2023-04-27T06:14:37.323Z,77.54
2023-04-27T06:17:04.406Z,76.51
2023-04-27T06:19:31.649Z,76.59
2023-04-27T06:21:58.231Z,76.83
2023-04-27T06:24:24.661Z,76.21
2023-04-27T06:26:51.184Z,75.39
2023-04-27T06:29:17.721Z,74.94
2023-04-27T06:31:44.399Z,75.28
2023-04-27T06:34:10.973Z,74.72
2023-04-27T06:36:37.543Z,74.95
2023-04-27T06:39:03.941Z,73.67
2023-04-27T06:41:30.379Z,73.35
2023-04-27T06:43:58.580Z,71.44
2023-04-27T06:46:26.031Z,70.91
2023-04-27T06:48:52.771Z,70.71
2023-04-27T06:51:19.258Z,69.48
2023-04-27T06:53:46.018Z,69.42
2023-04-27T06:56:12.477Z,69.39
2023-04-27T06:58:39.004Z,70.37
2023-04-27T07:01:05.579Z,69.44
2023-04-27T07:03:35.082Z,69.88
2023-04-27T07:06:01.699Z,69.93
2023-04-27T07:08:28.155Z,69.87
2023-04-27T07:10:56.038Z,70.08
2023-04-27T07:13:22.729Z,67.74
2023-04-27T07:15:54.684Z,68.20
2023-04-27T07:18:21.298Z,66.87
2023-04-27T07:20:47.705Z,69.13
2023-04-27T07:23:14.218Z,68.53
2023-04-27T07:25:40.680Z,68.64
2023-04-27T07:28:07.138Z,68.84
2023-04-27T07:30:36.383Z,67.34
2023-04-27T07:33:03.415Z,67.79
2023-04-27T07:35:29.934Z,68.53
2023-04-27T07:37:56.806Z,68.27
2023-04-27T07:40:24.118Z,68.88
2023-04-27T07:42:51.103Z,66.74
2023-04-27T07:45:17.946Z,65.58
2023-04-27T07:47:44.657Z,64.50
2023-04-27T07:50:11.245Z,64.92
2023-04-27T07:52:37.774Z,64.15
2023-04-27T07:55:04.646Z,64.24
2023-04-27T07:57:31.526Z,63.71
2023-04-27T07:59:58.093Z,63.62
2023-04-27T08:02:26.786Z,63.16
2023-04-27T08:04:53.921Z,64.05
2023-04-27T08:07:20.913Z,63.85
2023-04-27T08:09:50.724Z,62.10
2023-04-27T08:12:17.192Z,60.41
2023-04-27T08:14:43.592Z,60.38
2023-04-27T08:17:10.060Z,60.84
2023-04-27T08:19:36.512Z,62.25
2023-04-27T08:22:03.552Z,60.19
2023-04-27T08:24:29.992Z,57.08
2023-04-27T08:26:56.524Z,58.94
2023-04-27T08:29:28.013Z,57.19
2023-04-27T08:31:58.403Z,54.99
2023-04-27T08:34:25.826Z,54.37
2023-04-27T08:36:52.386Z,53.75
2023-04-27T08:39:18.950Z,55.05
2023-04-27T08:41:46.240Z,55.62
2023-04-27T08:44:12.697Z,56.00
2023-04-27T08:46:39.523Z,57.12
2023-04-27T08:49:07.349Z,57.96
2023-04-27T08:51:34.614Z,58.31
2023-04-27T08:54:01.292Z,59.63
2023-04-27T08:56:30.263Z,57.90
2023-04-27T08:58:58.028Z,57.96
2023-04-27T09:01:25.329Z,57.47
2023-04-27T09:04:00.257Z,57.30
2023-04-27T09:06:35.045Z,55.89
2023-04-27T09:09:03.514Z,54.70
2023-04-27T09:11:32.700Z,53.13
2023-04-27T09:14:00.824Z,50.93
2023-04-27T09:16:29.365Z,50.14
2023-04-27T09:18:57.441Z,49.99
2023-04-27T09:21:25.709Z,51.93
2023-04-27T09:23:52.488Z,50.50
2023-04-27T09:26:23.980Z,49.95
2023-04-27T09:28:53.085Z,50.58
2023-04-27T09:31:20.725Z,51.19
2023-04-27T09:33:55.823Z,51.30
2023-04-27T09:36:23.339Z,50.07
2023-04-27T09:38:51.381Z,52.11
2023-04-27T09:41:18.556Z,52.42
2023-04-27T09:43:46.123Z,52.32
2023-04-27T09:46:16.207Z,50.23
2023-04-27T09:48:42.931Z,51.55
2023-04-27T09:51:09.464Z,52.30
2023-04-27T09:53:46.486Z,52.36
2023-04-27T09:56:55.616Z,51.03
2023-04-27T10:00:08.019Z,51.81
2023-04-27T10:03:02.709Z,50.87
2023-04-27T10:05:38.110Z,51.05
2023-04-27T10:08:06.050Z,51.19
2023-04-27T10:10:43.280Z,50.58
2023-04-27T10:13:21.607Z,49.26
2023-04-27T10:15:48.164Z,49.36
2023-04-27T10:18:25.967Z,46.95
2023-04-27T10:20:53.061Z,46.31
2023-04-27T10:23:27.355Z,46.50
2023-04-27T10:25:54.844Z,47.73
2023-04-27T10:28:21.356Z,48.38
2023-04-27T10:30:49.437Z,48.55
2023-04-27T10:33:18.297Z,49.41
2023-04-27T10:35:54.975Z,51.19
2023-04-27T10:38:28.085Z,53.76
2023-04-27T10:41:02.806Z,55.21
2023-04-27T10:43:31.781Z,55.85
2023-04-27T10:46:12.891Z,55.42
2023-04-27T10:48:40.967Z,55.81
2023-04-27T10:51:07.669Z,55.13
2023-04-27T10:53:37.971Z,55.43
2023-04-27T10:56:06.975Z,55.26
2023-04-27T10:58:47.545Z,54.63
2023-04-27T11:01:29.157Z,53.77
2023-04-27T11:03:59.891Z,53.41
2023-04-27T11:06:28.426Z,51.31
2023-04-27T11:08:54.959Z,52.13
2023-04-27T11:11:22.703Z,50.47
2023-04-27T11:13:49.993Z,52.33
2023-04-27T11:16:16.618Z,50.98
2023-04-27T11:18:43.117Z,50.70
2023-04-27T11:21:10.652Z,50.57
2023-04-27T11:23:40.843Z,50.82
2023-04-27T11:26:14.744Z,49.30
2023-04-27T11:28:42.239Z,50.21
2023-04-27T11:31:09.249Z,48.15
2023-04-27T11:33:36.270Z,50.76
2023-04-27T11:36:03.476Z,50.51
2023-04-27T11:38:33.850Z,50.62
2023-04-27T11:41:03.635Z,47.45
2023-04-27T11:43:30.584Z,48.89
2023-04-27T11:45:58.379Z,46.73
2023-04-27T11:48:26.966Z,46.59
2023-04-27T11:50:53.671Z,46.64
2023-04-27T11:53:34.418Z,47.08
2023-04-27T11:56:05.630Z,47.25
2023-04-27T11:58:36.593Z,47.77
2023-04-27T12:01:04.584Z,48.41
2023-04-27T12:03:31.670Z,49.65
2023-04-27T12:06:07.679Z,50.16
2023-04-27T12:08:43.009Z,51.08
2023-04-27T12:11:09.503Z,51.25
2023-04-27T12:13:35.967Z,52.63
2023-04-27T12:16:02.624Z,52.31
2023-04-27T12:18:29.078Z,51.53
2023-04-27T12:20:55.673Z,51.34
2023-04-27T12:23:22.089Z,50.73
2023-04-27T12:25:49.198Z,49.82
2023-04-27T12:28:19.015Z,50.68
2023-04-27T12:30:46.007Z,50.79
2023-04-27T12:33:12.575Z,50.17
2023-04-27T12:35:39.093Z,50.37
2023-04-27T12:38:05.502Z,50.82
2023-04-27T12:40:33.101Z,51.54
2023-04-27T12:43:01.156Z,52.43
2023-04-27T12:45:28.043Z,53.94
2023-04-27T12:48:03.220Z,54.30
2023-04-27T12:50:32.514Z,52.72
2023-04-27T12:52:59.995Z,53.09
2023-04-27T12:55:33.880Z,54.14
2023-04-27T12:58:01.908Z,55.95
2023-04-27T13:00:29.677Z,55.95
2023-04-27T13:02:57.153Z,56.72
2023-04-27T13:05:24.072Z,56.19
2023-04-27T13:07:50.499Z,55.76
2023-04-27T13:10:16.967Z,54.57
2023-04-27T13:12:43.669Z,54.71
2023-04-27T13:15:10.917Z,52.96
2023-04-27T13:17:37.422Z,52.73
2023-04-27T13:20:04.489Z,52.75
2023-04-27T13:22:30.879Z,51.04
2023-04-27T13:24:58.060Z,50.06
2023-04-27T13:27:28.226Z,49.78
2023-04-27T13:29:54.913Z,49.26
2023-04-27T13:32:22.098Z,48.56
2023-04-27T13:34:49.161Z,49.38
2023-04-27T13:37:15.588Z,48.76
2023-04-27T13:39:42.035Z,48.60
2023-04-27T13:42:08.469Z,49.90
2023-04-27T13:44:35.164Z,49.98
2023-04-27T13:47:01.633Z,48.77
2023-04-27T13:49:28.141Z,48.34
2023-04-27T13:51:54.626Z,47.89
2023-04-27T13:54:21.642Z,46.74
2023-04-27T13:56:48.317Z,47.05
2023-04-27T13:59:16.577Z,45.89
2023-04-27T14:01:43.535Z,46.62
2023-04-27T14:04:10.761Z,46.20
2023-04-27T14:06:37.387Z,47.16
2023-04-27T14:09:04.340Z,47.65
2023-04-27T14:11:30.842Z,47.62
2023-04-27T14:13:58.118Z,46.79
2023-04-27T14:16:24.740Z,49.00
2023-04-27T14:18:52.361Z,47.63
2023-04-27T14:21:18.965Z,49.04
2023-04-27T14:23:45.637Z,49.08
2023-04-27T14:26:12.226Z,48.31
2023-04-27T14:28:38.680Z,48.62
2023-04-27T14:31:05.137Z,48.29
2023-04-27T14:33:32.022Z,49.59
2023-04-27T14:35:58.506Z,49.02
2023-04-27T14:38:24.962Z,48.90
2023-04-27T14:40:51.364Z,51.01
2023-04-27T14:43:17.980Z,51.70
2023-04-27T14:45:52.314Z,53.54
2023-04-27T14:48:20.886Z,53.46
2023-04-27T14:50:47.372Z,54.41
2023-04-27T14:53:14.104Z,55.21
2023-04-27T14:55:41.213Z,54.62
2023-04-27T14:58:07.731Z,53.68
2023-04-27T15:00:34.629Z,54.43
2023-04-27T15:03:01.249Z,55.52
2023-04-27T15:05:28.427Z,55.80
2023-04-27T15:07:55.317Z,55.27
2023-04-27T15:10:21.793Z,54.54
2023-04-27T15:12:48.324Z,55.19
2023-04-27T15:15:14.855Z,55.07
2023-04-27T15:17:41.626Z,53.56
2023-04-27T15:20:08.590Z,53.47
2023-04-27T15:22:35.003Z,54.28
2023-04-27T15:25:01.528Z,53.86
2023-04-27T15:27:27.986Z,52.60
2023-04-27T15:29:55.237Z,55.63
2023-04-27T15:32:24.413Z,54.47
2023-04-27T15:34:51.802Z,54.55
2023-04-27T15:37:18.668Z,55.62
2023-04-27T15:39:45.494Z,56.35
2023-04-27T15:42:12.066Z,57.36
2023-04-27T15:44:38.503Z,58.71
2023-04-27T15:47:05.086Z,54.16
2023-04-27T15:49:34.456Z,52.56
2023-04-27T15:52:06.590Z,50.67
2023-04-27T15:54:33.658Z,47.17
2023-04-27T15:57:03.977Z,49.10
2023-04-27T15:59:31.166Z,50.79
2023-04-27T16:01:57.611Z,50.02
2023-04-27T16:04:24.291Z,50.58
2023-04-27T16:06:50.928Z,52.71
2023-04-27T16:09:18.134Z,53.30
2023-04-27T16:11:44.978Z,53.93
2023-04-27T16:14:11.889Z,54.37
2023-04-27T16:16:38.867Z,54.71
2023-04-27T16:19:07.485Z,56.88
2023-04-27T16:21:34.606Z,55.53
2023-04-27T16:24:01.285Z,55.45
2023-04-27T16:26:28.439Z,55.60
2023-04-27T16:28:56.435Z,54.60
2023-04-27T16:31:22.979Z,54.10
2023-04-27T16:33:49.610Z,53.98
2023-04-27T16:36:16.207Z,54.07
2023-04-27T16:38:42.676Z,53.93
2023-04-27T16:41:09.181Z,52.30
2023-04-27T16:43:35.897Z,52.31
2023-04-27T16:46:02.357Z,52.58
2023-04-27T16:48:29.500Z,53.83
2023-04-27T16:50:56.245Z,53.81
2023-04-27T16:53:22.996Z,54.93
2023-04-27T16:55:49.433Z,56.52
2023-04-27T16:58:16.087Z,57.28
2023-04-27T17:00:42.844Z,57.70
2023-04-27T17:03:09.925Z,58.35
2023-04-27T17:05:36.855Z,58.20
2023-04-27T17:08:05.162Z,57.21
2023-04-27T17:10:32.210Z,59.07
2023-04-27T17:12:59.183Z,61.45
2023-04-27T17:15:26.508Z,60.09
2023-04-27T17:17:53.170Z,59.99
2023-04-27T17:20:19.841Z,59.72
2023-04-27T17:22:46.658Z,60.01
2023-04-27T17:25:13.102Z,61.42
2023-04-27T17:27:39.576Z,61.50
2023-04-27T17:30:08.263Z,61.06
2023-04-27T17:32:35.109Z,61.66
2023-04-27T17:35:01.594Z,61.14
2023-04-27T17:37:28.196Z,61.48
2023-04-27T17:39:54.698Z,61.55
2023-04-27T17:42:21.424Z,62.21
2023-04-27T17:44:47.942Z,61.39
2023-04-27T17:47:14.740Z,61.51
2023-04-27T17:49:41.409Z,62.50
2023-04-27T17:52:07.920Z,61.55
2023-04-27T17:54:34.529Z,60.38
2023-04-27T17:57:01.747Z,60.79
2023-04-27T17:59:28.907Z,61.20
2023-04-27T18:01:55.368Z,60.98
2023-04-27T18:04:22.054Z,61.18
2023-04-27T18:06:48.996Z,61.77
2023-04-27T18:09:16.330Z,62.89
2023-04-27T18:11:42.980Z,63.64
2023-04-27T18:14:09.441Z,64.11
2023-04-27T18:16:36.070Z,64.25
2023-04-27T18:19:02.734Z,63.75
2023-04-27T18:21:29.895Z,64.28
2023-04-27T18:23:57.128Z,65.22
2023-04-27T18:26:23.590Z,65.29
2023-04-27T18:28:50.864Z,65.29
2023-04-27T18:31:18.242Z,65.90
2023-04-27T18:33:45.392Z,66.06
2023-04-27T18:36:12.455Z,66.36
2023-04-27T18:38:39.002Z,66.89
2023-04-27T18:41:05.730Z,67.55
2023-04-27T18:43:34.379Z,68.13
2023-04-27T18:46:00.810Z,68.34
2023-04-27T18:48:27.549Z,68.57
2023-04-27T18:50:53.961Z,68.79
2023-04-27T18:53:20.883Z,68.30
2023-04-27T18:55:47.272Z,68.64
2023-04-27T18:58:13.974Z,68.77
2023-04-27T19:00:40.470Z,69.13
2023-04-27T19:03:07.215Z,68.87
2023-04-27T19:05:34.060Z,68.90
2023-04-27T19:08:01.424Z,69.45
2023-04-27T19:10:27.951Z,69.28
2023-04-27T19:12:56.052Z,69.75
2023-04-27T19:15:22.660Z,69.83
2023-04-27T19:17:55.452Z,70.21
2023-04-27T19:20:28.993Z,70.18
2023-04-27T19:22:55.568Z,70.46
2023-04-27T19:25:22.996Z,70.63
2023-04-27T19:27:49.481Z,70.78
2023-04-27T19:30:16.867Z,70.64
2023-04-27T19:32:43.701Z,70.71
2023-04-27T19:35:12.336Z,70.95
2023-04-27T19:37:38.949Z,70.98
2023-04-27T19:40:06.212Z,71.24
2023-04-27T19:42:32.890Z,71.76
2023-04-27T19:45:00.743Z,71.11
2023-04-27T19:47:27.341Z,70.84
2023-04-27T19:49:53.960Z,71.58
2023-04-27T19:52:20.687Z,71.40
2023-04-27T19:54:52.026Z,71.22
2023-04-27T19:57:18.757Z,71.90
2023-04-27T19:59:45.154Z,71.78
2023-04-27T20:02:11.874Z,71.81
2023-04-27T20:04:39.684Z,72.16
2023-04-27T20:07:06.546Z,71.88
2023-04-27T20:09:33.091Z,72.11
2023-04-27T20:11:59.728Z,71.99
2023-04-27T20:14:28.893Z,72.21
2023-04-27T20:16:55.448Z,71.93
2023-04-27T20:19:22.573Z,72.09
2023-04-27T20:21:50.155Z,71.48
2023-04-27T20:24:17.293Z,72.36
2023-04-27T20:26:44.111Z,71.78
2023-04-27T20:29:10.588Z,71.87
2023-04-27T20:31:37.224Z,72.73
2023-04-27T20:34:03.702Z,72.80
2023-04-27T20:36:30.301Z,72.61
2023-04-27T20:38:57.508Z,72.50
2023-04-27T20:41:24.175Z,73.18
2023-04-27T20:43:52.286Z,72.72
2023-04-27T20:46:19.243Z,73.57
2023-04-27T20:48:46.270Z,73.68
2023-04-27T20:51:12.776Z,73.37
2023-04-27T20:53:40.104Z,73.62
2023-04-27T20:56:07.033Z,73.48
2023-04-27T20:58:33.472Z,73.41
2023-04-27T21:01:00.149Z,73.48
2023-04-27T21:03:26.756Z,74.39
2023-04-27T21:05:53.434Z,74.43
2023-04-27T21:08:19.857Z,73.66
2023-04-27T21:10:46.527Z,73.88
2023-04-27T21:13:13.059Z,73.41
2023-04-27T21:15:39.638Z,74.06
2023-04-27T21:18:06.664Z,73.70
2023-04-27T21:20:36.200Z,73.85
2023-04-27T21:23:02.697Z,73.99
2023-04-27T21:25:29.447Z,73.79
2023-04-27T21:27:55.973Z,73.32
2023-04-27T21:30:22.562Z,73.35
2023-04-27T21:32:49.114Z,73.77
2023-04-27T21:35:15.754Z,73.28
2023-04-27T21:37:42.206Z,73.06
2023-04-27T21:40:08.932Z,73.58
2023-04-27T21:42:35.437Z,73.46
2023-04-27T21:45:03.866Z,74.19
2023-04-27T21:47:30.289Z,74.41
2023-04-27T21:49:56.794Z,74.01
2023-04-27T21:52:24.330Z,74.42
2023-04-27T21:54:51.202Z,74.27
2023-04-27T21:57:19.439Z,74.25
2023-04-27T21:59:46.615Z,74.64
2023-04-27T22:02:13.605Z,74.09
2023-04-27T22:04:40.435Z,74.62
2023-04-27T22:07:10.299Z,74.19
2023-04-27T22:09:36.929Z,74.31
2023-04-27T22:12:03.927Z,74.25
2023-04-27T22:14:31.364Z,74.87
2023-04-27T22:16:58.305Z,74.55
2023-04-27T22:19:25.263Z,74.77
2023-04-27T22:21:52.042Z,74.99
2023-04-27T22:24:18.736Z,74.57
2023-04-27T22:26:47.957Z,74.90
2023-04-27T22:29:17.758Z,75.16
2023-04-27T22:31:45.302Z,74.92
2023-04-27T22:34:12.960Z,74.79
2023-04-27T22:36:39.586Z,75.47
2023-04-27T22:39:07.071Z,74.76
2023-04-27T22:41:33.992Z,74.79
2023-04-27T22:44:00.574Z,74.72
2023-04-27T22:46:27.065Z,75.39
2023-04-27T22:48:53.898Z,75.18
2023-04-27T22:51:21.627Z,75.67
2023-04-27T22:53:48.548Z,75.51
2023-04-27T22:56:15.146Z,75.40
2023-04-27T22:58:41.616Z,75.76
2023-04-27T23:01:08.097Z,75.20
2023-04-27T23:03:34.818Z,75.10
2023-04-27T23:06:01.586Z,75.74
2023-04-27T23:08:28.826Z,75.55
2023-04-27T23:10:56.284Z,75.74
2023-04-27T23:13:26.683Z,76.33
2023-04-27T23:15:56.834Z,75.46
2023-04-27T23:18:23.299Z,75.16
2023-04-27T23:20:56.947Z,75.82
2023-04-27T23:23:23.463Z,75.87
2023-04-27T23:25:50.014Z,76.03
2023-04-27T23:28:16.652Z,75.30
2023-04-27T23:30:43.260Z,76.01
2023-04-27T23:33:10.878Z,75.82
2023-04-27T23:35:37.547Z,77.25
2023-04-27T23:38:03.984Z,75.88
2023-04-27T23:40:30.466Z,76.24
2023-04-27T23:42:57.084Z,77.22
2023-04-27T23:45:23.705Z,76.27
2023-04-27T23:47:50.190Z,75.80
2023-04-27T23:50:16.783Z,75.87
2023-04-27T23:52:43.205Z,75.97
2023-04-27T23:55:10.356Z,76.70
2023-04-27T23:57:37.006Z,76.27
